createdAt,value
2023-04-25T00:01:55.637Z,100318.78
2023-04-25T00:04:22.904Z,100327.28
2023-04-25T00:06:49.674Z,100327.47
2023-04-25T00:09:16.374Z,100327.69
2023-04-25T00:11:42.872Z,100328.97
2023-04-25T00:14:09.306Z,100328.13
2023-04-25T00:16:36.530Z,100330.47
2023-04-25T00:19:03.818Z,100326.88
2023-04-25T00:21:32.495Z,100321.84
2023-04-25T00:23:58.962Z,100321.44
2023-04-25T00:26:25.989Z,100328.22
2023-04-25T00:28:52.677Z,100329.72
2023-04-25T00:31:19.133Z,100324.00
2023-04-25T00:33:45.570Z,100332.09
2023-04-25T00:36:12.333Z,100334.19
2023-04-25T00:38:39.254Z,100327.88
2023-04-25T00:41:08.415Z,100328.75
2023-04-25T00:43:35.127Z,100329.63
2023-04-25T00:46:02.038Z,100323.94
2023-04-25T00:48:28.710Z,100324.78
2023-04-25T00:50:59.366Z,100325.66
2023-04-25T00:53:27.944Z,100319.34
2023-04-25T00:55:55.116Z,100318.28
2023-04-25T00:58:22.697Z,100328.25
2023-04-25T01:00:51.169Z,100323.81
2023-04-25T01:03:20.735Z,100330.59
2023-04-25T01:05:48.209Z,100325.75
2023-04-25T01:08:15.431Z,100329.75
2023-04-25T01:10:41.953Z,100326.81
2023-04-25T01:13:08.746Z,100329.31
2023-04-25T01:15:36.736Z,100329.97
2023-04-25T01:18:04.752Z,100328.88
2023-04-25T01:20:33.360Z,100338.59
2023-04-25T01:22:59.855Z,100331.84
2023-04-25T01:25:26.856Z,100336.28
2023-04-25T01:27:53.592Z,100338.59
2023-04-25T01:30:20.282Z,100335.63
2023-04-25T01:32:48.333Z,100340.69
2023-04-25T01:35:14.849Z,100338.56
2023-04-25T01:37:42.674Z,100333.53
2023-04-25T01:40:13.763Z,100341.94
2023-04-25T01:42:43.245Z,100333.53
2023-04-25T01:45:11.785Z,100337.06
2023-04-25T01:47:40.524Z,100331.78
2023-04-25T01:50:08.770Z,100334.09
2023-04-25T01:52:35.413Z,100333.25
2023-04-25T01:55:05.534Z,100336.16
2023-04-25T01:57:32.063Z,100342.28
2023-04-25T02:00:01.956Z,100354.03
2023-04-25T02:02:28.500Z,100359.91
2023-04-25T02:04:55.592Z,100354.25
2023-04-25T02:07:22.134Z,100358.63
2023-04-25T02:09:48.861Z,100355.44
2023-04-25T02:12:15.384Z,100355.00
2023-04-25T02:14:41.812Z,100353.53
2023-04-25T02:17:08.409Z,100354.16
2023-04-25T02:19:34.994Z,100359.81
2023-04-25T02:22:01.679Z,100362.97
2023-04-25T02:24:28.961Z,100362.31
2023-04-25T02:26:56.888Z,100360.81
2023-04-25T02:29:24.141Z,100357.66
2023-04-25T02:31:50.862Z,100360.78
2023-04-25T02:34:17.422Z,100360.34
2023-04-25T02:36:43.970Z,100367.72
2023-04-25T02:39:11.313Z,100371.91
2023-04-25T02:41:37.892Z,100375.69
2023-04-25T02:44:04.360Z,100375.88
2023-04-25T02:46:38.889Z,100384.50
2023-04-25T02:49:07.263Z,100366.78
2023-04-25T02:51:33.767Z,100375.41
2023-04-25T02:54:00.315Z,100371.81
2023-04-25T02:56:27.265Z,100377.69
2023-04-25T02:58:54.683Z,100381.88
2023-04-25T03:01:21.324Z,100380.59
2023-04-25T03:03:47.964Z,100383.72
2023-04-25T03:06:14.963Z,100382.22
2023-04-25T03:08:41.370Z,100384.13
2023-04-25T03:11:07.866Z,100386.88
2023-04-25T03:13:34.288Z,100384.31
2023-04-25T03:16:01.061Z,100388.94
2023-04-25T03:18:27.561Z,100382.63
2023-04-25T03:20:54.112Z,100381.75
2023-04-25T03:23:20.541Z,100382.16
2023-04-25T03:25:46.948Z,100384.91
2023-04-25T03:28:13.495Z,100381.31
2023-04-25T03:30:39.891Z,100389.53
2023-04-25T03:33:06.412Z,100379.66
2023-04-25T03:35:32.915Z,100386.16
2023-04-25T03:37:59.349Z,100384.47
2023-04-25T03:40:25.915Z,100386.34
2023-04-25T03:42:52.346Z,100386.56
2023-04-25T03:45:18.852Z,100395.22
2023-04-25T03:47:45.444Z,100389.75
2023-04-25T03:50:12.016Z,100393.09
2023-04-25T03:52:38.541Z,100395.66
2023-04-25T03:55:05.813Z,100395.44
2023-04-25T03:57:32.315Z,100406.00
2023-04-25T03:59:58.679Z,100399.06
2023-04-25T04:02:25.333Z,100399.72
2023-04-25T04:04:52.061Z,100397.84
2023-04-25T04:07:18.810Z,100403.75
2023-04-25T04:09:45.281Z,100407.13
2023-04-25T04:12:11.671Z,100401.66
2023-04-25T04:14:38.071Z,100396.00
2023-04-25T04:17:04.534Z,100405.06
2023-04-25T04:19:30.917Z,100406.72
2023-04-25T04:21:57.293Z,100403.78
2023-04-25T04:24:23.766Z,100404.66
2023-04-25T04:26:51.624Z,100405.28
2023-04-25T04:29:21.807Z,100406.97
2023-04-25T04:31:50.722Z,100415.19
2023-04-25T04:34:18.860Z,100408.88
2023-04-25T04:36:47.210Z,100410.56
2023-04-25T04:39:14.659Z,100416.22
2023-04-25T04:41:41.479Z,100416.88
2023-04-25T04:44:09.851Z,100421.94
2023-04-25T04:46:38.838Z,100425.31
2023-04-25T04:49:18.320Z,100421.34
2023-04-25T04:51:47.897Z,100421.78
2023-04-25T04:54:14.371Z,100426.66
2023-04-25T04:56:41.228Z,100424.38
2023-04-25T04:59:08.068Z,100433.66
2023-04-25T05:01:36.882Z,100441.72
2023-04-25T05:04:04.450Z,100438.16
2023-04-25T05:06:32.187Z,100433.56
2023-04-25T05:08:58.948Z,100437.41
2023-04-25T05:11:29.118Z,100429.41
2023-04-25T05:13:55.795Z,100441.25
2023-04-25T05:16:22.199Z,100445.91
2023-04-25T05:18:48.963Z,100445.09
2023-04-25T05:21:15.396Z,100445.75
2023-04-25T05:23:41.803Z,100444.28
2023-04-25T05:26:14.500Z,100446.63
2023-04-25T05:28:42.535Z,100446.63
2023-04-25T05:31:11.321Z,100453.59
2023-04-25T05:33:37.833Z,100462.66
2023-04-25T05:36:04.500Z,100464.59
2023-04-25T05:38:33.265Z,100466.75
2023-04-25T05:41:01.202Z,100465.47
2023-04-25T05:43:27.595Z,100463.78
2023-04-25T05:45:54.164Z,100467.19
2023-04-25T05:48:20.831Z,100471.63
2023-04-25T05:50:47.259Z,100465.97
2023-04-25T05:53:13.746Z,100467.88
2023-04-25T05:55:40.184Z,100471.88
2023-04-25T05:58:09.942Z,100466.81
2023-04-25T06:00:36.552Z,100467.25
2023-04-25T06:03:03.444Z,100463.50
2023-04-25T06:05:30.264Z,100466.91
2023-04-25T06:07:56.855Z,100477.44
2023-04-25T06:10:23.612Z,100477.44
2023-04-25T06:12:50.084Z,100475.31
2023-04-25T06:15:27.302Z,100483.34
2023-04-25T06:17:56.431Z,100474.50
2023-04-25T06:20:24.977Z,100487.56
2023-04-25T06:22:55.132Z,100485.47
2023-04-25T06:25:21.985Z,100482.50
2023-04-25T06:27:48.620Z,100493.06
2023-04-25T06:30:15.093Z,100501.94
2023-04-25T06:32:41.697Z,100495.41
2023-04-25T06:35:08.521Z,100498.97
2023-04-25T06:37:34.953Z,100492.44
2023-04-25T06:40:01.333Z,100493.50
2023-04-25T06:42:27.727Z,100497.28
2023-04-25T06:44:54.090Z,100497.28
2023-04-25T06:47:20.558Z,100510.59
2023-04-25T06:49:46.981Z,100510.16
2023-04-25T06:52:13.457Z,100506.56
2023-04-25T06:54:39.888Z,100507.84
2023-04-25T06:57:06.403Z,100508.69
2023-04-25T06:59:33.816Z,100510.78
2023-04-25T07:02:00.580Z,100520.50
2023-04-25T07:04:27.344Z,100524.94
2023-04-25T07:06:54.333Z,100522.63
2023-04-25T07:09:20.810Z,100519.44
2023-04-25T07:11:47.296Z,100513.09
2023-04-25T07:14:13.772Z,100518.16
2023-04-25T07:16:40.741Z,100522.59
2023-04-25T07:19:07.256Z,100527.88
2023-04-25T07:21:33.881Z,100530.63
2023-04-25T07:24:00.438Z,100534.41
2023-04-25T07:26:26.839Z,100532.31
2023-04-25T07:28:53.347Z,100519.41
2023-04-25T07:31:19.731Z,100532.75
2023-04-25T07:33:46.929Z,100530.41
2023-04-25T07:36:13.669Z,100530.84
2023-04-25T07:38:40.541Z,100531.91
2023-04-25T07:41:07.103Z,100515.00
2023-04-25T07:43:33.758Z,100534.88
2023-04-25T07:46:00.229Z,100527.63
2023-04-25T07:48:26.699Z,100538.22
2023-04-25T07:50:53.272Z,100540.97
2023-04-25T07:53:19.853Z,100540.31
2023-04-25T07:55:46.322Z,100533.09
2023-04-25T07:58:13.030Z,100543.22
2023-04-25T08:00:39.620Z,100539.16
2023-04-25T08:03:06.217Z,100542.88
2023-04-25T08:05:32.825Z,100544.97
2023-04-25T08:08:00.204Z,100544.97
2023-04-25T08:10:26.647Z,100548.53
2023-04-25T08:12:53.100Z,100543.91
2023-04-25T08:15:19.569Z,100560.19
2023-04-25T08:17:46.487Z,100563.78
2023-04-25T08:20:13.306Z,100556.56
2023-04-25T08:22:39.781Z,100558.28
2023-04-25T08:25:06.402Z,100558.66
2023-04-25T08:27:32.816Z,100565.00
2023-04-25T08:29:59.732Z,100574.50
2023-04-25T08:32:26.403Z,100573.63
2023-04-25T08:34:55.077Z,100580.81
2023-04-25T08:37:21.824Z,100584.41
2023-04-25T08:39:53.405Z,100590.53
2023-04-25T08:42:20.673Z,100599.63
2023-04-25T08:44:49.472Z,100600.53
2023-04-25T08:47:15.956Z,100614.31
2023-04-25T08:49:47.102Z,100606.06
2023-04-25T08:52:14.978Z,100619.63
2023-04-25T08:54:49.267Z,100630.19
2023-04-25T08:57:16.453Z,100621.69
2023-04-25T08:59:46.661Z,100636.47
2023-04-25T09:02:18.848Z,100623.75
2023-04-25T09:04:45.729Z,100639.56
2023-04-25T09:07:12.325Z,100639.56
2023-04-25T09:09:38.788Z,100654.19
2023-04-25T09:12:06.303Z,100640.59
2023-04-25T09:14:32.990Z,100647.78
2023-04-25T09:17:01.129Z,100644.44
2023-04-25T09:19:40.448Z,100647.19
2023-04-25T09:22:08.534Z,100658.88
2023-04-25T09:24:41.552Z,100660.56
2023-04-25T09:27:10.571Z,100663.94
2023-04-25T09:29:39.251Z,100664.63
2023-04-25T09:32:12.826Z,100677.53
2023-04-25T09:34:52.682Z,100672.06
2023-04-25T09:37:21.479Z,100675.06
2023-04-25T09:39:54.926Z,100679.25
2023-04-25T09:42:26.407Z,100687.31
2023-04-25T09:44:54.903Z,100685.38
2023-04-25T09:47:24.225Z,100701.66
2023-04-25T09:49:51.984Z,100701.22
2023-04-25T09:52:26.431Z,100696.09
2023-04-25T09:54:53.451Z,100701.16
2023-04-25T09:57:22.430Z,100701.56
2023-04-25T09:59:51.327Z,100697.63
2023-04-25T10:02:21.342Z,100697.88
2023-04-25T10:04:55.522Z,100699.19
2023-04-25T10:07:27.264Z,100699.31
2023-04-25T10:10:02.794Z,100698.88
2023-04-25T10:12:29.847Z,100694.19
2023-04-25T10:14:56.331Z,100705.50
2023-04-25T10:17:23.540Z,100695.97
2023-04-25T10:19:50.453Z,100700.25
2023-04-25T10:22:27.857Z,100720.91
2023-04-25T10:24:54.500Z,100709.06
2023-04-25T10:27:21.141Z,100713.94
2023-04-25T10:30:16.648Z,100717.75
2023-04-25T10:32:44.328Z,100713.34
2023-04-25T10:35:34.923Z,100727.91
2023-04-25T10:38:04.300Z,100715.38
2023-04-25T10:40:31.374Z,100721.97
2023-04-25T10:43:32.826Z,100726.63
2023-04-25T10:46:02.967Z,100724.97
2023-04-25T10:48:31.310Z,100721.63
2023-04-25T10:51:17.646Z,100729.94
2023-04-25T10:53:56.442Z,100728.94
2023-04-25T10:56:45.097Z,100737.47
2023-04-25T10:59:17.142Z,100733.22
2023-04-25T11:01:45.645Z,100731.53
2023-04-25T11:04:33.233Z,100742.19
2023-04-25T11:07:07.809Z,100732.25
2023-04-25T11:09:36.199Z,100738.41
2023-04-25T11:12:02.939Z,100735.66
2023-04-25T11:14:29.438Z,100734.34
2023-04-25T11:17:00.689Z,100742.19
2023-04-25T11:19:28.782Z,100738.34
2023-04-25T11:22:02.885Z,100740.84
2023-04-25T11:24:31.908Z,100733.59
2023-04-25T11:27:05.343Z,100730.53
2023-04-25T11:29:35.677Z,100725.25
2023-04-25T11:32:03.311Z,100725.84
2023-04-25T11:34:31.857Z,100711.47
2023-04-25T11:36:58.762Z,100722.03
2023-04-25T11:39:26.761Z,100720.97
2023-04-25T11:41:53.989Z,100718.91
2023-04-25T11:44:21.171Z,100724.41
2023-04-25T11:46:48.207Z,100725.63
2023-04-25T11:49:15.847Z,100724.94
2023-04-25T11:51:44.256Z,100732.47
2023-04-25T11:54:12.761Z,100730.00
2023-04-25T11:56:43.213Z,100728.03
2023-04-25T11:59:10.715Z,100737.41
2023-04-25T12:01:39.572Z,100738.31
2023-04-25T12:04:25.876Z,100734.50
2023-04-25T12:06:54.494Z,100735.72
2023-04-25T12:09:28.227Z,100732.31
2023-04-25T12:11:56.599Z,100730.03
2023-04-25T12:14:30.919Z,100728.09
2023-04-25T12:16:59.426Z,100744.97
2023-04-25T12:19:26.926Z,100739.44
2023-04-25T12:21:58.611Z,100752.69
2023-04-25T12:24:28.407Z,100753.94
2023-04-25T12:27:05.152Z,100750.97
2023-04-25T12:29:42.133Z,100761.66
2023-04-25T12:32:14.763Z,100759.63
2023-04-25T12:34:41.204Z,100751.63
2023-04-25T12:37:07.632Z,100756.72
2023-04-25T12:39:34.107Z,100764.81
2023-04-25T12:42:00.729Z,100770.56
2023-04-25T12:44:27.693Z,100772.31
2023-04-25T12:46:55.520Z,100772.75
2023-04-25T12:49:22.056Z,100777.19
2023-04-25T12:51:48.489Z,100775.72
2023-04-25T12:54:15.473Z,100778.84
2023-04-25T12:56:42.273Z,100781.34
2023-04-25T12:59:08.818Z,100786.50
2023-04-25T13:01:36.511Z,100783.00
2023-04-25T13:04:03.584Z,100782.22
2023-04-25T13:06:33.255Z,100774.66
2023-04-25T13:08:59.746Z,100777.78
2023-04-25T13:11:26.234Z,100782.75
2023-04-25T13:13:53.245Z,100781.91
2023-04-25T13:16:21.958Z,100768.84
2023-04-25T13:18:48.813Z,100777.59
2023-04-25T13:21:15.310Z,100779.72
2023-04-25T13:23:43.753Z,100789.09
2023-04-25T13:26:10.201Z,100782.47
2023-04-25T13:28:36.621Z,100787.78
2023-04-25T13:31:03.095Z,100790.47
2023-04-25T13:33:29.965Z,100785.97
2023-04-25T13:35:58.020Z,100783.59
2023-04-25T13:38:26.340Z,100781.91
2023-04-25T13:40:53.710Z,100780.59
2023-04-25T13:43:22.698Z,100784.38
2023-04-25T13:45:52.453Z,100779.47
2023-04-25T13:48:19.881Z,100772.28
2023-04-25T13:50:46.605Z,100782.09
2023-04-25T13:53:13.309Z,100785.63
2023-04-25T13:55:39.819Z,100782.22
2023-04-25T13:58:10.772Z,100779.47
2023-04-25T14:00:39.966Z,100782.47
2023-04-25T14:03:08.788Z,100781.78
2023-04-25T14:05:40.017Z,100778.97
2023-04-25T14:08:08.032Z,100785.47
2023-04-25T14:10:35.101Z,100786.56
2023-04-25T14:13:02.170Z,100785.72
2023-04-25T14:15:28.782Z,100780.78
2023-04-25T14:17:55.364Z,100783.63
2023-04-25T14:20:22.372Z,100781.94
2023-04-25T14:22:48.810Z,100794.50
2023-04-25T14:25:15.327Z,100797.13
2023-04-25T14:27:41.882Z,100792.75
2023-04-25T14:30:10.196Z,100797.09
2023-04-25T14:32:36.758Z,100783.78
2023-04-25T14:35:03.359Z,100795.09
2023-04-25T14:37:29.856Z,100798.38
2023-04-25T14:39:56.282Z,100805.59
2023-04-25T14:42:22.675Z,100805.22
2023-04-25T14:44:49.126Z,100820.31
2023-04-25T14:47:16.630Z,100823.97
2023-04-25T14:49:43.156Z,100819.34
2023-04-25T14:52:09.613Z,100819.34
2023-04-25T14:54:36.307Z,100812.81
2023-04-25T14:57:03.320Z,100814.88
2023-04-25T14:59:29.827Z,100810.63
2023-04-25T15:01:59.482Z,100811.25
2023-04-25T15:04:26.805Z,100808.03
2023-04-25T15:06:53.324Z,100817.78
2023-04-25T15:09:20.341Z,100815.25
2023-04-25T15:11:46.842Z,100814.59
2023-04-25T15:14:13.282Z,100815.44
2023-04-25T15:16:39.756Z,100807.31
2023-04-25T15:19:06.436Z,100814.66
2023-04-25T15:21:33.075Z,100820.69
2023-04-25T15:23:59.510Z,100808.03
2023-04-25T15:26:26.017Z,100798.13
2023-04-25T15:28:53.476Z,100798.75
2023-04-25T15:31:20.375Z,100790.81
2023-04-25T15:33:49.957Z,100791.81
2023-04-25T15:36:18.410Z,100795.53
2023-04-25T15:38:44.925Z,100785.94
2023-04-25T15:41:11.477Z,100786.63
2023-04-25T15:43:38.766Z,100802.97
2023-04-25T15:46:06.547Z,100799.56
2023-04-25T15:48:33.455Z,100796.28
2023-04-25T15:51:00.993Z,100798.25
2023-04-25T15:53:27.524Z,100802.44
2023-04-25T15:55:54.049Z,100799.84
2023-04-25T15:58:20.557Z,100805.91
2023-04-25T16:00:49.067Z,100805.13
2023-04-25T16:03:15.692Z,100813.78
2023-04-25T16:05:42.593Z,100805.91
2023-04-25T16:08:09.146Z,100812.44
2023-04-25T16:10:36.592Z,100812.47
2023-04-25T16:13:03.748Z,100808.69
2023-04-25T16:15:32.162Z,100829.41
2023-04-25T16:17:59.408Z,100824.50
2023-04-25T16:20:25.916Z,100808.63
2023-04-25T16:22:52.275Z,100814.59
2023-04-25T16:25:18.769Z,100803.31
2023-04-25T16:27:45.424Z,100814.63
2023-04-25T16:30:12.070Z,100820.13
2023-04-25T16:32:39.874Z,100819.19
2023-04-25T16:35:07.163Z,100829.53
2023-04-25T16:37:33.605Z,100824.56
2023-04-25T16:40:00.045Z,100831.38
2023-04-25T16:42:26.769Z,100836.22
2023-04-25T16:44:53.195Z,100841.88
2023-04-25T16:47:20.705Z,100832.66
2023-04-25T16:49:47.257Z,100835.53
2023-04-25T16:52:14.274Z,100839.59
2023-04-25T16:54:41.038Z,100834.53
2023-04-25T16:57:10.424Z,100835.78
2023-04-25T16:59:38.163Z,100841.44
2023-04-25T17:02:05.046Z,100839.06
2023-04-25T17:04:31.716Z,100845.75
2023-04-25T17:06:58.510Z,100849.16
2023-04-25T17:09:25.041Z,100843.63
2023-04-25T17:11:51.604Z,100848.63
2023-04-25T17:14:18.063Z,100848.88
2023-04-25T17:16:44.588Z,100850.41
2023-04-25T17:19:11.067Z,100851.28
2023-04-25T17:21:37.585Z,100845.19
2023-04-25T17:24:06.483Z,100854.13
2023-04-25T17:26:33.010Z,100856.25
2023-04-25T17:28:59.473Z,100852.13
2023-04-25T17:31:26.112Z,100852.63
2023-04-25T17:33:52.561Z,100858.06
2023-04-25T17:36:19.074Z,100868.22
2023-04-25T17:38:45.617Z,100872.03
2023-04-25T17:41:13.230Z,100873.72
2023-04-25T17:43:39.809Z,100869.44
2023-04-25T17:46:06.686Z,100870.38
2023-04-25T17:48:33.090Z,100865.09
2023-04-25T17:50:59.723Z,100886.06
2023-04-25T17:53:26.395Z,100871.81
2023-04-25T17:55:52.930Z,100875.47
2023-04-25T17:58:19.337Z,100878.59
2023-04-25T18:00:46.396Z,100883.13
2023-04-25T18:03:12.835Z,100877.91
2023-04-25T18:05:39.365Z,100883.06
2023-04-25T18:08:06.791Z,100877.59
2023-04-25T18:10:34.377Z,100885.28
2023-04-25T18:13:00.912Z,100887.69
2023-04-25T18:15:28.626Z,100894.56
2023-04-25T18:17:55.100Z,100903.06
2023-04-25T18:20:22.210Z,100902.25
2023-04-25T18:22:48.622Z,100906.72
2023-04-25T18:25:15.497Z,100908.00
2023-04-25T18:27:42.366Z,100910.56
2023-04-25T18:30:10.816Z,100920.78
2023-04-25T18:32:38.024Z,100922.94
2023-04-25T18:35:06.099Z,100931.84
2023-04-25T18:37:32.569Z,100933.13
2023-04-25T18:39:59.272Z,100944.59
2023-04-25T18:42:25.818Z,100954.34
2023-04-25T18:44:52.460Z,100951.41
2023-04-25T18:47:18.892Z,100952.47
2023-04-25T18:49:45.591Z,100941.25
2023-04-25T18:52:14.996Z,100948.06
2023-04-25T18:54:41.482Z,100950.19
2023-04-25T18:57:08.023Z,100962.91
2023-04-25T18:59:34.436Z,100957.81
2023-04-25T19:02:01.981Z,100957.41
2023-04-25T19:04:29.700Z,100963.13
2023-04-25T19:06:56.239Z,100963.34
2023-04-25T19:09:23.261Z,100972.66
2023-04-25T19:11:49.815Z,100973.94
2023-04-25T19:14:16.240Z,100962.28
2023-04-25T19:16:42.840Z,100971.19
2023-04-25T19:19:09.389Z,100967.34
2023-04-25T19:21:36.285Z,100968.41
2023-04-25T19:24:06.951Z,100976.66
2023-04-25T19:26:33.460Z,100995.28
2023-04-25T19:29:05.874Z,101001.84
2023-04-25T19:31:33.865Z,100996.69
2023-04-25T19:34:00.309Z,101000.47
2023-04-25T19:36:27.736Z,100990.50
2023-04-25T19:38:54.287Z,100993.06
2023-04-25T19:41:21.379Z,100992.63
2023-04-25T19:43:48.072Z,100998.75
2023-04-25T19:46:14.534Z,100999.97
2023-04-25T19:48:41.445Z,101001.25
2023-04-25T19:51:09.094Z,100998.25
2023-04-25T19:53:35.663Z,101000.38
2023-04-25T19:56:02.860Z,101009.88
2023-04-25T19:58:29.764Z,101008.59
2023-04-25T20:00:57.601Z,101007.50
2023-04-25T20:03:24.351Z,101010.88
2023-04-25T20:05:50.936Z,101011.91
2023-04-25T20:08:17.340Z,101017.16
2023-04-25T20:10:43.782Z,101022.59
2023-04-25T20:13:10.726Z,101017.09
2023-04-25T20:15:37.876Z,101018.91
2023-04-25T20:18:04.614Z,101026.47
2023-04-25T20:20:31.080Z,101030.00
2023-04-25T20:22:57.597Z,101030.19
2023-04-25T20:25:24.146Z,101035.81
2023-04-25T20:27:50.532Z,101038.69
2023-04-25T20:30:17.063Z,101044.16
2023-04-25T20:32:43.489Z,101048.72
2023-04-25T20:35:10.183Z,101039.97
2023-04-25T20:37:37.455Z,101039.66
2023-04-25T20:40:06.483Z,101043.38
2023-04-25T20:42:33.043Z,101049.00
2023-04-25T20:44:59.521Z,101043.53
2023-04-25T20:47:26.093Z,101054.22
2023-04-25T20:49:52.946Z,101048.84
2023-04-25T20:52:19.416Z,101053.41
2023-04-25T20:54:50.542Z,101059.66
2023-04-25T20:57:17.503Z,101061.47
2023-04-25T20:59:43.928Z,101054.84
2023-04-25T21:02:12.681Z,101061.97
2023-04-25T21:04:39.374Z,101052.13
2023-04-25T21:07:05.905Z,101052.91
2023-04-25T21:09:32.345Z,101047.34
2023-04-25T21:11:58.775Z,101058.19
2023-04-25T21:14:25.541Z,101052.44
2023-04-25T21:16:52.106Z,101056.59
2023-04-25T21:19:18.616Z,101064.50
2023-04-25T21:21:46.116Z,101070.53
2023-04-25T21:24:14.370Z,101070.06
2023-04-25T21:26:40.874Z,101074.25
2023-04-25T21:29:07.370Z,101071.69
2023-04-25T21:31:33.931Z,101086.59
2023-04-25T21:34:00.680Z,101075.34
2023-04-25T21:36:27.768Z,101084.59
2023-04-25T21:38:54.492Z,101078.84
2023-04-25T21:41:21.223Z,101082.78
2023-04-25T21:43:47.638Z,101075.97
2023-04-25T21:48:43.417Z,101080.69
2023-04-25T21:51:09.930Z,101085.69
2023-04-25T21:53:36.679Z,101080.75
2023-04-25T21:56:03.251Z,101085.75
2023-04-25T21:58:29.674Z,101086.59
2023-04-25T22:00:56.211Z,101095.84
2023-04-25T22:03:22.763Z,101091.22
2023-04-25T22:05:49.263Z,101092.09
2023-04-25T22:08:15.837Z,101096.50
2023-04-25T22:10:42.643Z,101096.69
2023-04-25T22:13:10.016Z,101104.91
2023-04-25T22:15:36.424Z,101095.66
2023-04-25T22:18:05.514Z,101108.28
2023-04-25T22:20:32.072Z,101099.22
2023-04-25T22:22:58.628Z,101109.16
2023-04-25T22:25:25.199Z,101108.97
2023-04-25T22:27:51.650Z,101113.59
2023-04-25T22:30:18.439Z,101119.06
2023-04-25T22:32:44.947Z,101117.34
2023-04-25T22:35:12.073Z,101121.97
2023-04-25T22:37:41.380Z,101127.44
2023-04-25T22:40:09.148Z,101131.41
2023-04-25T22:42:40.232Z,101138.75
2023-04-25T22:45:08.141Z,101133.50
2023-04-25T22:47:36.330Z,101136.22
2023-04-25T22:50:06.405Z,101140.84
2023-04-25T22:52:35.490Z,101144.44
2023-04-25T22:55:03.117Z,101148.84
2023-04-25T22:57:30.192Z,101158.13
2023-04-25T22:59:57.543Z,101150.72
2023-04-25T23:02:25.071Z,101157.06
2023-04-25T23:04:53.240Z,101153.13
2023-04-25T23:07:20.454Z,101155.00
2023-04-25T23:09:46.946Z,101159.44
2023-04-25T23:12:13.458Z,101159.44
2023-04-25T23:14:40.019Z,101158.41
2023-04-25T23:17:06.685Z,101160.28
2023-04-25T23:19:34.352Z,101160.13
2023-04-25T23:22:00.878Z,101162.00
2023-04-25T23:24:27.275Z,101161.13
2023-04-25T23:26:53.666Z,101159.44
2023-04-25T23:29:20.104Z,101161.34
2023-04-25T23:31:46.490Z,101164.06
2023-04-25T23:34:12.861Z,101163.75
2023-04-25T23:36:39.360Z,101156.41
2023-04-25T23:39:05.861Z,101164.78
2023-04-25T23:41:32.675Z,101168.06
2023-04-25T23:43:59.244Z,101170.78
2023-04-25T23:46:28.285Z,101168.06
2023-04-25T23:48:54.720Z,101167.41
2023-04-25T23:51:21.378Z,101173.91
2023-04-25T23:53:47.748Z,101175.97
2023-04-25T23:56:14.178Z,101172.56
2023-04-25T23:58:40.768Z,101181.81
